Terminal Aerodrome Forecast
Issued by NWS Nashville, TN

Home | Current Version | Previous Version | Text Only | Print | Product List | Glossary On
Versions: 1 2 3 4 5 6 7 8 9 10 11 12 13 14 15 16 17 18 19 20 21 22 23
000
FTUS44 KOHX 012300 CCA
TAFBNA
TAF COR
KBNA 012327Z 0200/0224 21015G25KT 4SM -RA BR BKN009 OVC020
     FM020300 26014G24KT 6SM BR VCSH BKN010 OVC020
     FM020700 30015G25KT P6SM -SHSN OVC020
     FM021700 34012KT P6SM OVC035=

USA.gov is the U.S. government's official web portal to all federal, state and local government web resources and services.